LETO/TOJ METAR and TAF weather

Enter ICAO airport designator
Station Type Date Time Source
LETO METAR 2019/06/26 16:00 UTC NOAA

LETO 261600Z 19011KT 160V260 CAVOK 37/12 Q1015 NOSIG


Station Type Date Time Source
LETO Decoded METAR 2019/06/26 16:00 UTC NOAA

Madrid / Torrejon, Spain (LETO) 40-29N 003-27W 611M
Jun 26, 2019 - 12:00 PM EDT / 2019.06.26 1600 UTC
Wind: from the S (190 degrees) at 13 MPH (11 KT) (direction variable):0
Visibility: greater than 7 mile(s):0
Temperature: 98 F (37 C)
Heat index: 95.5 F (35.3 C):1
Dew Point: 53 F (12 C)
Relative Humidity: 22%
Pressure (altimeter): 29.97 in. Hg (1015 hPa)
ob: LETO 261600Z 19011KT 160V260 CAVOK 37/12 Q1015 NOSIG
cycle: 16

Station Type Date Time Source
LETO TAF 2019/06/26 12:27 UTC NOAA

TAF LETO 261100Z 2612/2712 17010KT CAVOK TX37/2616Z TN21/2706Z PROB30
TEMPO 2613/2624 17015G25KT
TEMPO 2704/2708 VRB05KT PROB40
TEMPO 2711/2712 16015G32KT

Example: see airport list